createdAt,value
2023-03-21T00:00:59.411Z,45.92
2023-03-21T00:03:28.585Z,48.28
2023-03-21T00:05:57.761Z,46.78
2023-03-21T00:08:28.046Z,49.55
2023-03-21T00:11:01.477Z,48.42
2023-03-21T00:13:33.510Z,48.45
2023-03-21T00:16:10.627Z,50.10
2023-03-21T00:18:47.247Z,49.08
2023-03-21T00:24:08.933Z,49.78
2023-03-21T00:26:39.182Z,50.17
2023-03-21T00:29:08.010Z,50.20
2023-03-21T00:31:36.771Z,51.72
2023-03-21T00:34:05.516Z,52.20
2023-03-21T00:36:34.289Z,53.10
2023-03-21T00:39:03.070Z,51.33
2023-03-21T00:41:45.894Z,52.63
2023-03-21T00:44:16.505Z,53.90
2023-03-21T00:47:00.801Z,51.28
2023-03-21T00:49:35.849Z,51.83
2023-03-21T00:52:38.092Z,52.92
2023-03-21T00:54:56.553Z,52.20
2023-03-21T00:57:38.089Z,51.53
2023-03-21T01:00:11.824Z,53.42
2023-03-21T01:03:04.279Z,54.28
2023-03-21T01:06:00.823Z,55.70
2023-03-21T01:08:38.153Z,53.25
2023-03-21T01:11:14.454Z,54.35
2023-03-21T01:13:53.803Z,53.95
2023-03-21T01:16:26.913Z,53.38
2023-03-21T01:18:55.729Z,52.78
2023-03-21T01:21:24.628Z,50.92
2023-03-21T01:23:53.361Z,52.10
2023-03-21T01:26:22.326Z,53.03
2023-03-21T01:28:51.438Z,53.65
2023-03-21T01:31:20.574Z,53.40
2023-03-21T01:33:49.743Z,57.90
2023-03-21T01:36:24.505Z,53.97
2023-03-21T01:38:54.977Z,53.28
2023-03-21T01:41:44.348Z,52.13
2023-03-21T01:44:18.803Z,52.65
2023-03-21T01:47:09.972Z,52.22
2023-03-21T01:49:46.865Z,55.30
2023-03-21T01:52:33.599Z,52.75
2023-03-21T01:55:08.415Z,53.67
2023-03-21T01:58:02.016Z,52.83
2023-03-21T02:00:34.263Z,51.60
2023-03-21T02:03:15.153Z,51.40
2023-03-21T02:06:08.853Z,51.17
2023-03-21T02:08:39.804Z,51.05
2023-03-21T02:11:10.883Z,49.55
2023-03-21T02:13:39.981Z,50.40
2023-03-21T02:16:10.796Z,47.75
2023-03-21T02:18:47.085Z,46.25
2023-03-21T02:21:35.925Z,45.22
2023-03-21T02:24:05.565Z,54.17
2023-03-21T02:27:03.608Z,50.75
2023-03-21T02:30:05.392Z,46.28
2023-03-21T02:32:55.215Z,43.60
2023-03-21T02:35:51.899Z,42.65
2023-03-21T02:38:42.383Z,42.38
2023-03-21T02:41:21.283Z,43.03
2023-03-21T02:44:15.816Z,40.80
2023-03-21T02:47:08.132Z,40.33
2023-03-21T02:49:45.840Z,41.73
2023-03-21T02:52:35.589Z,41.15
2023-03-21T02:55:14.716Z,39.58
2023-03-21T02:57:46.680Z,37.75
2023-03-21T03:00:21.059Z,37.85
2023-03-21T03:03:02.648Z,40.03
2023-03-21T03:05:45.068Z,38.67
2023-03-21T03:08:45.297Z,38.47
2023-03-21T03:11:39.866Z,38.35
2023-03-21T03:14:47.106Z,36.50
2023-03-21T03:17:30.806Z,35.83
2023-03-21T03:20:16.433Z,36.47
2023-03-21T03:23:08.366Z,38.35
2023-03-21T03:25:51.391Z,37.20
2023-03-21T03:28:25.679Z,36.88
2023-03-21T03:31:08.791Z,36.30
2023-03-21T03:33:41.716Z,35.35
2023-03-21T03:36:25.005Z,34.95
2023-03-21T03:39:01.453Z,34.63
2023-03-21T03:42:00.798Z,35.88
2023-03-21T03:44:23.395Z,36.33
2023-03-21T03:47:01.507Z,35.75
2023-03-21T03:49:36.337Z,34.05
2023-03-21T03:52:18.325Z,31.65
2023-03-21T03:54:50.079Z,32.73
2023-03-21T03:57:19.746Z,33.10
2023-03-21T03:59:49.092Z,32.03
2023-03-21T04:02:18.448Z,33.03
2023-03-21T04:04:48.129Z,33.75
2023-03-21T04:07:17.154Z,32.95
2023-03-21T04:09:46.558Z,33.03
2023-03-21T04:12:15.560Z,31.60
2023-03-21T04:14:46.107Z,32.72
2023-03-21T04:17:16.912Z,31.88
2023-03-21T04:19:47.396Z,31.40
2023-03-21T04:22:16.508Z,31.50
2023-03-21T04:24:45.786Z,31.70
2023-03-21T04:27:14.931Z,28.77
2023-03-21T04:29:44.244Z,28.50
2023-03-21T04:32:17.388Z,29.50
2023-03-21T04:34:55.118Z,33.67
2023-03-21T04:37:24.746Z,32.22
2023-03-21T04:39:56.335Z,34.55
2023-03-21T04:42:25.261Z,35.03
2023-03-21T04:44:54.021Z,33.03
2023-03-21T04:47:22.938Z,34.45
2023-03-21T04:49:52.746Z,32.42
2023-03-21T04:52:22.886Z,33.50
2023-03-21T04:54:53.056Z,31.10
2023-03-21T04:57:21.939Z,31.88
2023-03-21T04:59:50.721Z,29.10
2023-03-21T05:02:19.500Z,30.00
2023-03-21T05:04:48.286Z,31.05
2023-03-21T05:07:18.129Z,29.67
2023-03-21T05:09:47.336Z,28.77
2023-03-21T05:12:16.680Z,28.83
2023-03-21T05:14:45.421Z,25.85
2023-03-21T05:17:24.167Z,25.63
2023-03-21T05:19:53.916Z,21.73
2023-03-21T05:22:22.716Z,23.25
2023-03-21T05:24:52.526Z,23.88
2023-03-21T05:27:42.376Z,25.40
2023-03-21T05:30:24.949Z,24.77
2023-03-21T05:32:53.684Z,24.40
2023-03-21T05:35:22.460Z,23.73
2023-03-21T05:37:51.304Z,24.45
2023-03-21T05:40:20.122Z,25.67
2023-03-21T05:42:49.520Z,25.63
2023-03-21T05:45:18.354Z,25.10
2023-03-21T05:47:47.188Z,24.88
2023-03-21T05:50:16.204Z,25.13
2023-03-21T05:52:44.925Z,25.20
2023-03-21T05:55:13.691Z,24.88
2023-03-21T05:57:42.688Z,22.65
2023-03-21T06:00:13.011Z,21.25
2023-03-21T06:02:42.092Z,20.35
2023-03-21T06:05:12.151Z,22.27
2023-03-21T06:07:41.167Z,24.15
2023-03-21T06:10:10.554Z,24.58
2023-03-21T06:12:39.310Z,24.08
2023-03-21T06:15:09.912Z,23.58
2023-03-21T06:17:38.679Z,22.40
2023-03-21T06:20:08.196Z,21.85
2023-03-21T06:22:37.521Z,22.88
2023-03-21T06:25:08.554Z,22.58
2023-03-21T06:27:38.102Z,22.45
2023-03-21T06:30:08.201Z,21.95
2023-03-21T06:32:37.051Z,22.02
2023-03-21T06:35:06.281Z,21.77
2023-03-21T06:37:35.162Z,22.65
2023-03-21T06:40:05.978Z,22.15
2023-03-21T06:42:34.860Z,21.85
2023-03-21T06:45:04.288Z,22.92
2023-03-21T06:47:33.059Z,22.15
2023-03-21T06:50:01.858Z,23.00
2023-03-21T06:52:30.539Z,21.50
2023-03-21T06:54:59.302Z,21.50
2023-03-21T06:57:28.434Z,21.67
2023-03-21T06:59:57.221Z,22.58
2023-03-21T07:02:26.058Z,20.92
2023-03-21T07:04:55.065Z,21.70
2023-03-21T07:07:27.394Z,21.70
2023-03-21T07:09:56.453Z,22.13
2023-03-21T07:12:25.498Z,21.00
2023-03-21T07:15:00.693Z,21.90
2023-03-21T07:17:30.147Z,21.83
2023-03-21T07:19:59.541Z,21.63
2023-03-21T07:22:29.393Z,21.80
2023-03-21T07:25:04.749Z,21.15
2023-03-21T07:27:34.087Z,22.27
2023-03-21T07:30:02.910Z,22.10
2023-03-21T07:32:34.815Z,21.50
2023-03-21T07:35:03.546Z,21.75
2023-03-21T07:37:32.632Z,21.67
2023-03-21T07:40:01.632Z,21.45
2023-03-21T07:45:00.924Z,20.83
2023-03-21T07:47:30.664Z,21.35
2023-03-21T07:49:59.700Z,20.92
2023-03-21T07:52:31.754Z,21.20
2023-03-21T07:55:00.500Z,21.27
2023-03-21T07:57:29.255Z,20.48
2023-03-21T08:00:02.290Z,21.58
2023-03-21T08:02:31.416Z,20.48
2023-03-21T08:05:00.196Z,20.52
2023-03-21T08:07:28.920Z,20.90
2023-03-21T08:10:03.364Z,22.02
2023-03-21T08:12:32.107Z,20.40
2023-03-21T08:15:01.257Z,20.42
2023-03-21T08:17:30.196Z,22.02
2023-03-21T08:19:58.949Z,20.58
2023-03-21T08:22:41.036Z,20.52
2023-03-21T08:25:31.613Z,20.75
2023-03-21T08:28:00.717Z,19.67
2023-03-21T08:30:30.645Z,20.73
2023-03-21T08:33:01.936Z,20.52
2023-03-21T08:35:32.760Z,21.55
2023-03-21T08:38:03.381Z,21.60
2023-03-21T08:40:32.278Z,21.42
2023-03-21T08:43:01.394Z,20.30
2023-03-21T08:45:30.777Z,20.08
2023-03-21T08:47:59.680Z,20.08
2023-03-21T08:50:30.579Z,19.30
2023-03-21T08:52:59.454Z,20.60
2023-03-21T08:55:33.960Z,20.45
2023-03-21T08:58:03.069Z,20.73
2023-03-21T09:00:31.851Z,19.27
2023-03-21T09:03:00.660Z,20.70
2023-03-21T09:05:29.517Z,20.35
2023-03-21T09:07:58.700Z,20.35
2023-03-21T09:10:36.299Z,21.65
2023-03-21T09:13:05.107Z,20.75
2023-03-21T09:15:34.175Z,20.45
2023-03-21T09:18:14.237Z,19.80
2023-03-21T09:20:44.782Z,20.13
2023-03-21T09:23:31.052Z,19.90
2023-03-21T09:26:00.098Z,19.20
2023-03-21T09:28:29.130Z,20.02
2023-03-21T09:31:02.891Z,19.45
2023-03-21T09:33:32.232Z,20.30
2023-03-21T09:36:01.465Z,19.30
2023-03-21T09:38:31.458Z,19.23
2023-03-21T09:41:06.836Z,20.88
2023-03-21T09:43:50.493Z,20.05
2023-03-21T09:46:44.229Z,19.60
2023-03-21T09:49:31.970Z,19.70
2023-03-21T09:52:04.597Z,19.90
2023-03-21T09:54:39.078Z,21.42
2023-03-21T09:57:20.634Z,19.38
2023-03-21T09:59:54.686Z,18.75
2023-03-21T10:02:48.654Z,19.50
2023-03-21T10:05:24.587Z,19.92
2023-03-21T10:08:20.372Z,18.70
2023-03-21T10:10:52.950Z,18.85
2023-03-21T10:13:26.547Z,19.27
2023-03-21T10:16:01.466Z,19.15
2023-03-21T10:18:32.730Z,20.10
2023-03-21T10:21:02.581Z,18.75
2023-03-21T10:23:31.999Z,18.65
2023-03-21T10:26:04.712Z,18.83
2023-03-21T10:28:52.093Z,19.67
2023-03-21T10:31:27.077Z,18.55
2023-03-21T10:34:00.780Z,18.33
2023-03-21T10:36:32.600Z,19.23
2023-03-21T10:39:03.745Z,19.60
2023-03-21T10:41:33.512Z,19.67
2023-03-21T10:44:12.731Z,19.95
2023-03-21T10:46:52.150Z,19.90
2023-03-21T10:49:22.593Z,18.83
2023-03-21T10:51:55.233Z,19.55
2023-03-21T10:56:59.082Z,19.85
2023-03-21T10:59:29.896Z,20.38
2023-03-21T11:01:59.249Z,20.33
2023-03-21T11:04:30.850Z,19.88
2023-03-21T11:07:02.404Z,20.10
2023-03-21T11:09:55.147Z,20.45
2023-03-21T11:12:38.616Z,19.70
2023-03-21T11:15:28.114Z,22.48
2023-03-21T11:17:57.040Z,21.20
2023-03-21T11:20:26.209Z,20.60
2023-03-21T11:22:57.669Z,21.95
2023-03-21T11:25:42.412Z,20.70
2023-03-21T11:28:16.844Z,22.77
2023-03-21T11:30:56.810Z,20.15
2023-03-21T11:33:37.635Z,19.73
2023-03-21T11:36:09.755Z,20.25
2023-03-21T11:38:40.739Z,20.45
2023-03-21T11:41:09.982Z,20.50
2023-03-21T11:43:41.419Z,20.35
2023-03-21T11:46:14.632Z,21.10
2023-03-21T11:48:46.157Z,20.65
2023-03-21T11:51:16.760Z,21.98
2023-03-21T11:54:00.468Z,21.85
2023-03-21T11:56:33.431Z,21.38
2023-03-21T11:59:29.064Z,21.08
2023-03-21T12:02:23.798Z,21.02
2023-03-21T12:05:20.242Z,21.25
2023-03-21T12:07:50.862Z,20.70
2023-03-21T12:10:51.516Z,21.10
2023-03-21T12:13:38.929Z,21.25
2023-03-21T12:16:33.228Z,20.70
2023-03-21T12:19:20.108Z,21.63
2023-03-21T12:22:05.525Z,21.92
2023-03-21T12:25:09.675Z,21.40
2023-03-21T12:27:58.503Z,21.55
2023-03-21T12:30:39.920Z,22.42
2023-03-21T12:33:47.939Z,23.30
2023-03-21T12:36:23.564Z,21.83
2023-03-21T12:39:15.898Z,23.00
2023-03-21T12:41:52.462Z,22.00
2023-03-21T12:44:30.092Z,22.33
2023-03-21T12:47:13.991Z,23.50
2023-03-21T12:49:49.504Z,21.67
2023-03-21T12:52:27.082Z,22.90
2023-03-21T12:55:18.464Z,22.30
2023-03-21T12:57:57.407Z,22.30
2023-03-21T13:00:45.477Z,22.77
2023-03-21T13:03:39.871Z,23.17
2023-03-21T13:06:12.913Z,22.55
2023-03-21T13:08:51.234Z,22.05
2023-03-21T13:11:24.821Z,22.00
2023-03-21T13:14:14.704Z,22.00
2023-03-21T13:16:53.557Z,23.35
2023-03-21T13:19:47.857Z,23.38
2023-03-21T13:22:26.488Z,22.52
2023-03-21T13:25:34.183Z,22.42
2023-03-21T13:28:06.110Z,23.52
2023-03-21T13:30:35.285Z,22.63
2023-03-21T13:33:30.306Z,23.63
2023-03-21T13:36:08.221Z,24.13
2023-03-21T13:38:41.153Z,26.25
2023-03-21T13:41:20.490Z,25.58
2023-03-21T13:43:59.422Z,26.17
2023-03-21T13:46:29.187Z,24.15
2023-03-21T13:49:00.512Z,24.33
2023-03-21T13:51:30.223Z,23.75
2023-03-21T13:54:05.454Z,24.75
2023-03-21T13:56:51.374Z,24.75
2023-03-21T13:59:40.367Z,25.70
2023-03-21T14:02:33.674Z,25.52
2023-03-21T14:05:07.335Z,25.70
2023-03-21T14:07:42.266Z,25.88
2023-03-21T14:10:36.639Z,26.02
2023-03-21T14:13:08.408Z,26.05
2023-03-21T14:15:55.000Z,28.70
2023-03-21T14:18:35.040Z,28.20
2023-03-21T14:21:24.294Z,26.85
2023-03-21T14:24:14.699Z,25.35
2023-03-21T14:26:48.086Z,25.65
2023-03-21T14:29:32.019Z,24.10
2023-03-21T14:32:01.684Z,23.95
2023-03-21T14:34:34.604Z,25.15
2023-03-21T14:37:03.634Z,25.10
2023-03-21T14:39:34.257Z,24.58
2023-03-21T14:42:09.078Z,24.48
2023-03-21T14:44:54.836Z,25.60
2023-03-21T14:47:26.594Z,24.73
2023-03-21T14:49:56.247Z,25.50
2023-03-21T14:52:27.435Z,25.63
2023-03-21T14:54:57.354Z,25.27
2023-03-21T14:57:32.582Z,24.55
2023-03-21T15:00:11.659Z,24.95
2023-03-21T15:02:44.028Z,24.85
2023-03-21T15:05:39.026Z,25.08
2023-03-21T15:08:18.497Z,24.58
2023-03-21T15:11:06.866Z,26.08
2023-03-21T15:13:41.495Z,24.52
2023-03-21T15:16:12.550Z,26.38
2023-03-21T15:18:42.965Z,25.65
2023-03-21T15:21:18.422Z,24.95
2023-03-21T15:23:49.837Z,25.77
2023-03-21T15:26:21.725Z,24.77
2023-03-21T15:28:56.847Z,25.55
2023-03-21T15:31:42.979Z,25.60
2023-03-21T15:34:30.448Z,25.95
2023-03-21T15:37:06.213Z,24.85
2023-03-21T15:39:37.328Z,25.92
2023-03-21T15:42:28.645Z,25.92
2023-03-21T15:45:02.137Z,26.60
2023-03-21T15:47:42.586Z,26.05
2023-03-21T15:50:23.767Z,27.05
2023-03-21T15:52:54.666Z,27.27
2023-03-21T15:55:36.440Z,26.90
2023-03-21T15:58:13.980Z,27.13
2023-03-21T16:00:45.012Z,27.27
2023-03-21T16:03:22.792Z,27.15
2023-03-21T16:06:15.430Z,27.45
2023-03-21T16:08:50.000Z,27.98
2023-03-21T16:11:38.161Z,25.92
2023-03-21T16:14:06.915Z,27.55
2023-03-21T16:16:35.850Z,27.30
2023-03-21T16:19:05.575Z,28.70
2023-03-21T16:21:35.542Z,27.13
2023-03-21T16:24:04.280Z,29.52
2023-03-21T16:26:35.829Z,29.23
2023-03-21T16:29:05.781Z,28.30
2023-03-21T16:31:37.171Z,28.20
2023-03-21T16:34:06.124Z,28.38
2023-03-21T16:36:38.198Z,28.75
2023-03-21T16:39:19.330Z,29.25
2023-03-21T16:41:49.503Z,28.35
2023-03-21T16:44:18.557Z,28.92
2023-03-21T16:46:48.403Z,29.42
2023-03-21T16:49:32.594Z,28.70
2023-03-21T16:52:03.997Z,28.83
2023-03-21T16:54:32.755Z,29.83
2023-03-21T16:57:01.491Z,29.92
2023-03-21T17:03:27.279Z,31.70
2023-03-21T17:05:56.109Z,32.40
2023-03-21T17:08:27.578Z,31.38
2023-03-21T17:10:56.315Z,30.80
2023-03-21T17:13:25.096Z,30.92
2023-03-21T17:15:54.010Z,31.95
2023-03-21T17:18:22.753Z,33.00
2023-03-21T17:20:51.521Z,32.75
2023-03-21T17:23:20.244Z,34.53
2023-03-21T17:25:48.935Z,34.25
2023-03-21T17:28:17.614Z,34.00
2023-03-21T17:30:46.543Z,34.15
2023-03-21T17:33:16.302Z,35.50
2023-03-21T17:35:45.081Z,36.10
2023-03-21T17:38:18.532Z,36.70
2023-03-21T17:40:48.472Z,35.13
2023-03-21T17:43:21.945Z,36.22
2023-03-21T17:45:50.881Z,35.65
2023-03-21T17:48:19.650Z,35.33
2023-03-21T17:50:48.542Z,35.65
2023-03-21T17:53:17.324Z,35.95
2023-03-21T17:55:46.011Z,35.15
2023-03-21T17:58:14.802Z,37.53
2023-03-21T18:00:43.598Z,37.30
2023-03-21T18:03:12.456Z,36.78
2023-03-21T18:05:41.816Z,35.50
2023-03-21T18:08:12.986Z,35.95
2023-03-21T18:10:43.168Z,34.15
2023-03-21T18:13:12.186Z,37.03
2023-03-21T18:15:44.705Z,37.33
2023-03-21T18:18:14.815Z,37.88
2023-03-21T18:20:53.104Z,35.28
2023-03-21T18:23:23.329Z,34.72
2023-03-21T18:25:53.391Z,35.38
2023-03-21T18:28:23.301Z,35.55
2023-03-21T18:31:08.544Z,36.05
2023-03-21T18:33:41.350Z,35.65
2023-03-21T18:36:13.938Z,36.03
2023-03-21T18:38:43.178Z,36.30
2023-03-21T18:41:12.435Z,37.47
2023-03-21T18:44:11.407Z,37.40
2023-03-21T18:46:31.423Z,36.05
2023-03-21T18:49:19.990Z,35.83
2023-03-21T18:51:48.958Z,37.10
2023-03-21T18:54:17.921Z,36.92
2023-03-21T18:59:42.087Z,35.90
2023-03-21T19:02:12.587Z,36.92
2023-03-21T19:04:41.605Z,37.10
2023-03-21T19:07:10.790Z,37.47
2023-03-21T19:10:01.520Z,36.83
2023-03-21T19:12:29.306Z,35.40
2023-03-21T19:14:58.023Z,37.72
2023-03-21T19:18:20.685Z,35.80
2023-03-21T19:20:17.444Z,36.25
2023-03-21T19:22:47.233Z,36.78
2023-03-21T19:25:17.436Z,36.75
2023-03-21T19:27:46.598Z,38.58
2023-03-21T19:30:16.304Z,36.88
2023-03-21T19:32:45.620Z,37.40
2023-03-21T19:35:15.199Z,36.47
2023-03-21T19:37:43.941Z,37.67
2023-03-21T19:40:12.994Z,36.63
2023-03-21T19:42:42.825Z,38.78
2023-03-21T19:45:12.452Z,37.60
2023-03-21T19:47:41.175Z,36.97
2023-03-21T19:52:59.799Z,38.38
2023-03-21T19:55:28.577Z,38.42
2023-03-21T19:57:57.421Z,37.25
2023-03-21T20:00:26.444Z,38.47
2023-03-21T20:02:55.340Z,36.53
2023-03-21T20:05:26.480Z,36.97
2023-03-21T20:07:58.192Z,38.00
2023-03-21T20:10:28.544Z,36.92
2023-03-21T20:12:57.960Z,37.30
2023-03-21T20:15:29.461Z,37.58
2023-03-21T20:17:59.639Z,38.58
2023-03-21T20:20:28.385Z,39.50
2023-03-21T20:23:06.685Z,37.72
2023-03-21T20:25:37.098Z,37.55
2023-03-21T20:28:15.650Z,36.78
2023-03-21T20:30:49.867Z,37.00
2023-03-21T20:33:19.054Z,36.38
2023-03-21T20:38:37.798Z,37.42
2023-03-21T20:41:07.881Z,36.60
2023-03-21T20:44:24.450Z,37.42
2023-03-21T20:46:25.863Z,38.63
2023-03-21T20:48:55.126Z,36.60
2023-03-21T20:54:12.890Z,38.20
2023-03-21T20:56:42.339Z,37.20
2023-03-21T20:59:20.857Z,38.50
2023-03-21T21:01:54.599Z,38.92
2023-03-21T21:04:36.086Z,39.45
2023-03-21T21:07:16.817Z,39.63
2023-03-21T21:09:46.623Z,39.05
2023-03-21T21:12:16.548Z,37.17
2023-03-21T21:14:46.359Z,37.80
2023-03-21T21:20:17.582Z,38.75
2023-03-21T21:22:58.924Z,41.05
2023-03-21T21:25:30.005Z,39.70
2023-03-21T21:27:58.751Z,39.08
2023-03-21T21:30:27.464Z,39.55
2023-03-21T21:32:56.464Z,40.33
2023-03-21T21:35:25.182Z,39.47
2023-03-21T21:37:54.567Z,38.22
2023-03-21T21:40:24.357Z,41.53
2023-03-21T21:42:53.279Z,39.47
2023-03-21T21:45:22.157Z,41.20
2023-03-21T21:47:50.902Z,40.00
2023-03-21T21:50:22.099Z,42.55
2023-03-21T21:52:53.631Z,41.92
2023-03-21T21:55:22.732Z,40.83
2023-03-21T21:57:51.612Z,41.90
2023-03-21T22:00:24.454Z,39.92
2023-03-21T22:02:53.762Z,43.33
2023-03-21T22:05:22.595Z,42.20
2023-03-21T22:07:53.447Z,42.22
2023-03-21T22:10:24.683Z,40.75
2023-03-21T22:12:53.480Z,41.67
2023-03-21T22:15:23.461Z,42.92
2023-03-21T22:17:53.052Z,42.70
2023-03-21T22:20:22.685Z,43.72
2023-03-21T22:22:52.446Z,42.03
2023-03-21T22:25:21.185Z,45.42
2023-03-21T22:27:50.280Z,42.67
2023-03-21T22:30:19.533Z,44.17
2023-03-21T22:33:02.525Z,43.83
2023-03-21T22:35:36.016Z,44.40
2023-03-21T22:38:04.659Z,43.22
2023-03-21T22:40:33.334Z,41.88
2023-03-21T22:43:01.981Z,42.50
2023-03-21T22:45:30.607Z,43.92
2023-03-21T22:48:00.775Z,41.75
2023-03-21T22:50:30.052Z,43.10
2023-03-21T22:52:58.740Z,44.70
2023-03-21T22:55:27.382Z,44.78
2023-03-21T22:57:56.686Z,42.85
2023-03-21T23:00:26.100Z,43.67
2023-03-21T23:02:55.087Z,43.13
2023-03-21T23:05:25.981Z,44.85
2023-03-21T23:07:54.704Z,44.63
2023-03-21T23:10:23.403Z,43.88
2023-03-21T23:12:52.776Z,45.55
2023-03-21T23:15:21.432Z,46.00
2023-03-21T23:17:50.761Z,44.20
2023-03-21T23:20:19.511Z,42.63
2023-03-21T23:22:48.143Z,44.95
2023-03-21T23:25:16.884Z,43.35
2023-03-21T23:27:45.627Z,44.05
2023-03-21T23:30:14.318Z,44.13
2023-03-21T23:32:43.110Z,45.38
2023-03-21T23:35:12.333Z,43.58
2023-03-21T23:37:43.343Z,45.83
2023-03-21T23:40:13.483Z,47.15
2023-03-21T23:42:42.169Z,43.05
2023-03-21T23:45:11.537Z,43.10
2023-03-21T23:47:40.262Z,45.65
2023-03-21T23:50:10.653Z,45.80
2023-03-21T23:52:42.306Z,43.35
2023-03-21T23:55:11.181Z,44.88
2023-03-21T23:57:42.625Z,45.05
